Time;durP1;ratioP1;P1;durP2;ratioP2;P2;SDS_P1;SDS_P2;PMS_P1;PMS_P2;Temp;Humidity;BMP_temperature;BMP_pressure;BME280_temperature;BME280_humidity;BME280_pressure;Samples;Min_cycle;Max_cycle;Signal;HPM_P1;HPM_P2
2021/04/03 00:00:36;;;;;;;2.72;2.10;;;22.50;39.70;;;;;;5121125;27;20456;-38
2021/04/03 00:03:06;;;;;;;4.63;2.33;;;22.50;39.70;;;;;;5120089;27;20153;-39
2021/04/03 00:05:33;;;;;;;4.18;2.00;;;22.50;39.70;;;;;;5127257;27;20084;-38
2021/04/03 00:08:02;;;;;;;3.40;2.17;;;22.50;39.70;;;;;;5136800;27;20566;-38
2021/04/03 00:10:36;;;;;;;2.35;1.77;;;22.50;39.70;;;;;;5116214;27;20039;-38
2021/04/03 00:13:03;;;;;;;2.00;1.80;;;22.60;39.70;;;;;;5135864;27;20075;-38
2021/04/03 00:15:30;;;;;;;2.50;1.88;;;22.50;39.70;;;;;;5137195;27;20389;-37
2021/04/03 00:17:57;;;;;;;2.00;1.80;;;22.50;39.60;;;;;;5137036;27;20050;-37
2021/04/03 00:20:27;;;;;;;2.65;1.90;;;22.50;39.60;;;;;;5118108;27;20472;-37
2021/04/03 00:22:54;;;;;;;3.05;1.60;;;22.50;39.90;;;;;;5134440;27;20051;-38
2021/04/03 00:25:20;;;;;;;2.33;1.92;;;22.50;39.50;;;;;;5135223;27;20043;-38
2021/04/03 00:27:47;;;;;;;2.42;1.90;;;22.50;39.50;;;;;;5117283;27;20449;-38
2021/04/03 00:30:15;;;;;;;2.28;1.67;;;22.50;39.60;;;;;;5130812;27;20043;-38
2021/04/03 00:32:52;;;;;;;2.25;1.85;;;22.50;39.50;;;;;;5135342;27;20079;-38
2021/04/03 00:35:27;;;;;;;2.47;1.90;;;22.50;39.50;;;;;;5133120;27;20379;-38
2021/04/03 00:37:56;;;;;;;2.65;1.70;;;22.50;39.50;;;;;;5134339;27;20047;-38
2021/04/03 00:40:32;;;;;;;2.13;1.60;;;22.50;39.50;;;;;;5135496;27;20047;-36
2021/04/03 00:43:00;;;;;;;2.10;1.80;;;22.50;39.50;;;;;;5134140;27;20054;-36
2021/04/03 00:45:27;;;;;;;2.40;1.67;;;22.50;39.40;;;;;;5135063;27;20039;-36
2021/04/03 00:47:53;;;;;;;2.83;2.00;;;22.50;39.40;;;;;;5132525;27;20046;-39
2021/04/03 00:50:30;;;;;;;2.92;1.65;;;22.50;39.40;;;;;;5134246;27;20039;-36
2021/04/03 00:52:57;;;;;;;2.55;1.85;;;22.50;39.40;;;;;;5134797;27;20122;-36
2021/04/03 00:55:24;;;;;;;2.80;1.90;;;22.50;39.30;;;;;;5134035;27;20059;-37
2021/04/03 00:57:51;;;;;;;2.58;1.70;;;22.50;39.30;;;;;;5134233;27;20105;-37
2021/04/03 01:00:18;;;;;;;1.90;1.70;;;22.50;39.30;;;;;;5133370;27;20047;-38
2021/04/03 01:02:45;;;;;;;2.42;1.60;;;22.50;39.30;;;;;;5115316;27;20056;-36
2021/04/03 01:05:17;;;;;;;2.95;1.80;;;22.50;39.30;;;;;;5133458;27;20062;-36
2021/04/03 01:07:46;;;;;;;3.13;1.63;;;22.50;39.30;;;;;;5126117;27;20499;-36
2021/04/03 01:10:25;;;;;;;2.97;1.90;;;22.50;39.30;;;;;;5116151;27;20046;-36
2021/04/03 01:13:21;;;;;;;2.30;1.67;;;22.50;39.30;;;;;;5134502;27;20124;-36
2021/04/03 01:16:18;;;;;;;2.22;1.70;;;22.50;39.20;;;;;;5133201;27;20391;-37
2021/04/03 01:19:22;;;;;;;1.73;1.38;;;22.50;39.20;;;;;;5128933;27;20036;-37
2021/04/03 01:22:13;;;;;;;2.63;1.70;;;22.50;39.20;;;;;;5130994;27;20043;-36
2021/04/03 01:25:03;;;;;;;2.80;1.80;;;22.40;39.10;;;;;;5132102;27;20096;-37
2021/04/03 01:27:30;;;;;;;2.60;1.42;;;22.40;39.00;;;;;;5132992;27;20130;-36
2021/04/03 01:30:06;;;;;;;1.90;1.30;;;22.40;39.00;;;;;;5131285;27;20043;-36
2021/04/03 01:32:49;;;;;;;2.45;1.40;;;22.40;39.00;;;;;;5133080;27;20070;-37
2021/04/03 01:35:34;;;;;;;3.42;1.45;;;22.40;39.00;;;;;;5131847;27;20096;-36
2021/04/03 01:38:10;;;;;;;1.77;1.20;;;22.40;39.10;;;;;;5132694;27;20103;-36
2021/04/03 01:40:38;;;;;;;1.70;1.40;;;22.40;39.00;;;;;;5110960;28;20564;-37
2021/04/03 01:43:11;;;;;;;2.45;1.65;;;22.40;38.90;;;;;;5127705;27;20139;-37
2021/04/03 01:45:40;;;;;;;2.30;1.40;;;22.40;38.90;;;;;;5133886;27;20096;-36
2021/04/03 01:48:09;;;;;;;2.55;1.52;;;22.40;38.90;;;;;;5133868;27;20051;-36
2021/04/03 01:50:39;;;;;;;1.83;1.50;;;22.40;38.90;;;;;;5128348;27;20096;-36
2021/04/03 01:53:06;;;;;;;2.58;1.65;;;22.40;38.90;;;;;;5120892;27;20447;-36
2021/04/03 01:55:33;;;;;;;1.67;1.30;;;22.40;38.80;;;;;;5133898;27;20063;-36
2021/04/03 01:58:01;;;;;;;1.90;1.48;;;22.40;38.70;;;;;;5134833;27;20497;-36
2021/04/03 02:00:30;;;;;;;2.30;1.30;;;22.40;38.80;;;;;;5115060;27;20043;-37
2021/04/03 02:02:57;;;;;;;2.08;1.63;;;22.40;38.70;;;;;;5133362;27;20042;-37
2021/04/03 02:05:25;;;;;;;2.08;1.52;;;22.40;38.70;;;;;;5116780;27;20047;-36
2021/04/03 02:07:53;;;;;;;2.08;1.30;;;22.40;38.70;;;;;;5118737;27;20061;-37
2021/04/03 02:10:26;;;;;;;1.80;1.27;;;22.40;38.60;;;;;;5130338;27;20043;-37
2021/04/03 02:12:53;;;;;;;2.00;1.35;;;22.40;38.60;;;;;;5115817;27;20051;-37
2021/04/03 02:15:22;;;;;;;1.92;1.27;;;22.40;38.60;;;;;;5125365;27;20075;-37
2021/04/03 02:17:51;;;;;;;1.80;1.63;;;22.40;38.60;;;;;;5118755;27;20055;-37
2021/04/03 02:20:19;;;;;;;1.63;1.30;;;22.40;38.50;;;;;;5121971;27;20046;-36
2021/04/03 02:22:48;;;;;;;1.80;1.50;;;22.40;38.50;;;;;;5118375;27;20096;-37
2021/04/03 02:25:16;;;;;;;1.95;1.33;;;22.40;38.50;;;;;;5120134;27;20043;-37
2021/04/03 02:27:44;;;;;;;1.88;1.40;;;22.40;38.50;;;;;;5132033;27;20043;-38
2021/04/03 02:30:23;;;;;;;1.95;1.30;;;22.40;38.50;;;;;;5113825;27;20097;-37
2021/04/03 02:32:56;;;;;;;1.77;1.30;;;22.40;38.40;;;;;;5132680;27;20039;-37
2021/04/03 02:35:25;;;;;;;1.75;1.17;;;22.40;38.40;;;;;;5133627;27;20047;-37
2021/04/03 02:37:55;;;;;;;2.38;1.38;;;22.40;38.40;;;;;;5133269;27;20064;-37
2021/04/03 02:40:24;;;;;;;2.08;1.38;;;22.40;38.30;;;;;;5116185;27;20079;-38
2021/04/03 02:42:54;;;;;;;2.17;1.13;;;22.40;38.30;;;;;;5117038;27;20048;-37
2021/04/03 02:45:23;;;;;;;1.25;1.15;;;22.40;38.40;;;;;;5117159;27;20052;-37
2021/04/03 02:47:57;;;;;;;3.22;1.40;;;22.40;38.30;;;;;;5125839;27;20068;-37
2021/04/03 02:50:27;;;;;;;2.27;1.30;;;22.40;38.30;;;;;;5132574;27;20051;-38
2021/04/03 02:52:56;;;;;;;1.08;0.98;;;22.40;38.30;;;;;;5133974;27;20330;-38
2021/04/03 02:55:27;;;;;;;2.22;1.25;;;22.40;38.20;;;;;;5133816;27;20151;-39
2021/04/03 02:57:56;;;;;;;1.60;1.15;;;22.40;38.20;;;;;;5134162;27;20043;-37
2021/04/03 03:00:24;;;;;;;1.92;1.27;;;22.40;38.20;;;;;;5130995;27;20050;-38
2021/04/03 03:02:52;;;;;;;1.48;1.02;;;22.40;38.20;;;;;;5132760;27;20043;-37
2021/04/03 03:05:19;;;;;;;1.90;1.30;;;22.40;38.20;;;;;;5132949;27;20792;-37
2021/04/03 03:07:48;;;;;;;1.67;1.23;;;22.40;38.20;;;;;;5131458;27;20070;-37
2021/04/03 03:10:17;;;;;;;1.45;0.90;;;22.40;38.10;;;;;;5133358;27;20047;-37
2021/04/03 03:12:46;;;;;;;1.48;1.13;;;22.30;38.00;;;;;;5129844;27;20059;-36
2021/04/03 03:15:15;;;;;;;1.38;1.13;;;22.40;38.10;;;;;;5131630;27;20116;-36
2021/04/03 03:17:43;;;;;;;1.75;1.30;;;22.40;38.00;;;;;;5129857;27;20073;-36
2021/04/03 03:20:15;;;;;;;1.85;1.30;;;22.40;38.00;;;;;;5130628;27;20087;-37
2021/04/03 03:22:42;;;;;;;2.05;1.23;;;22.40;38.00;;;;;;5131076;27;20132;-37
2021/04/03 03:25:10;;;;;;;1.13;0.90;;;22.30;37.90;;;;;;5131980;27;20055;-37
2021/04/03 03:27:40;;;;;;;1.17;0.85;;;22.30;37.80;;;;;;5135226;27;20068;-37
2021/04/03 03:30:08;;;;;;;1.40;1.30;;;22.30;37.80;;;;;;5132093;27;20043;-36
2021/04/03 03:32:36;;;;;;;2.30;1.20;;;22.30;37.80;;;;;;5134075;27;20079;-37
2021/04/03 03:35:07;;;;;;;1.63;1.23;;;22.30;37.80;;;;;;5117092;27;20039;-37
2021/04/03 03:37:35;;;;;;;1.73;1.20;;;22.30;37.80;;;;;;5135867;27;20043;-36
2021/04/03 03:40:03;;;;;;;1.38;1.00;;;22.30;37.80;;;;;;5135890;27;20503;-37
2021/04/03 03:42:31;;;;;;;1.38;1.10;;;22.30;37.70;;;;;;5136604;27;20099;-36
2021/04/03 03:44:58;;;;;;;3.47;1.15;;;22.40;37.80;;;;;;5136617;27;20051;-37
2021/04/03 03:47:24;;;;;;;1.10;1.00;;;22.30;37.60;;;;;;5136590;27;20047;-37
2021/04/03 03:49:51;;;;;;;1.38;1.08;;;22.30;37.70;;;;;;5134995;27;20096;-37
2021/04/03 03:52:18;;;;;;;1.42;1.00;;;22.30;37.60;;;;;;5135165;27;20047;-37
2021/04/03 03:54:45;;;;;;;1.48;0.98;;;22.30;37.60;;;;;;5134815;27;20067;-37
2021/04/03 03:57:12;;;;;;;1.58;1.20;;;22.30;37.60;;;;;;5134829;27;20417;-37
2021/04/03 03:59:39;;;;;;;1.60;1.20;;;22.40;37.60;;;;;;5134800;27;20491;-37
2021/04/03 04:02:06;;;;;;;1.65;1.20;;;22.30;37.60;;;;;;5136256;27;20065;-37
2021/04/03 04:04:32;;;;;;;2.38;1.40;;;22.30;37.60;;;;;;5135377;27;20059;-37
2021/04/03 04:06:59;;;;;;;1.80;1.10;;;22.30;37.50;;;;;;5134133;27;20074;-37
2021/04/03 04:09:26;;;;;;;1.00;0.85;;;22.30;37.40;;;;;;5136151;27;20440;-37
2021/04/03 04:11:53;;;;;;;1.05;0.93;;;22.30;37.40;;;;;;5136008;27;20452;-37
2021/04/03 04:14:19;;;;;;;1.75;1.33;;;22.30;37.40;;;;;;5134535;27;20047;-37
2021/04/03 04:16:46;;;;;;;1.30;0.93;;;22.30;37.40;;;;;;5125862;27;20097;-37
2021/04/03 04:19:13;;;;;;;1.10;1.00;;;22.30;37.40;;;;;;5124665;27;20074;-37
2021/04/03 04:21:39;;;;;;;1.90;1.30;;;22.30;37.40;;;;;;5134312;27;20502;-37
2021/04/03 04:24:06;;;;;;;1.30;0.90;;;22.30;37.40;;;;;;5134557;27;20047;-37
2021/04/03 04:26:33;;;;;;;1.63;1.10;;;22.30;37.40;;;;;;5134089;27;20039;-37
2021/04/03 04:28:59;;;;;;;1.88;1.10;;;22.30;37.40;;;;;;5117368;27;20044;-37
2021/04/03 04:31:26;;;;;;;1.13;0.98;;;22.30;37.40;;;;;;5115601;27;20483;-36
2021/04/03 04:33:53;;;;;;;1.27;1.10;;;22.30;37.40;;;;;;5119375;27;20048;-37
2021/04/03 04:36:20;;;;;;;1.50;1.08;;;22.30;37.40;;;;;;5132201;27;20107;-37
2021/04/03 04:38:46;;;;;;;1.45;1.00;;;22.30;37.40;;;;;;5123297;27;20039;-36
2021/04/03 04:41:13;;;;;;;1.90;1.38;;;22.30;37.30;;;;;;5119339;27;20044;-36
2021/04/03 04:43:40;;;;;;;1.60;1.10;;;22.30;37.30;;;;;;5126133;27;20074;-37
2021/04/03 04:46:06;;;;;;;1.67;1.20;;;22.30;37.30;;;;;;5129666;27;20448;-37
2021/04/03 04:48:33;;;;;;;2.28;1.00;;;22.30;37.90;;;;;;5120569;27;20051;-37
2021/04/03 04:50:59;;;;;;;1.20;1.00;;;22.30;37.20;;;;;;5119552;27;20039;-39
2021/04/03 04:53:26;;;;;;;1.70;1.08;;;22.30;37.30;;;;;;5119662;27;20043;-36
2021/04/03 04:55:53;;;;;;;1.42;1.00;;;22.30;37.30;;;;;;5133525;27;20486;-37
2021/04/03 04:58:20;;;;;;;1.35;0.90;;;22.30;37.30;;;;;;5135091;27;20047;-37
2021/04/03 05:00:47;;;;;;;0.98;0.77;;;22.30;37.20;;;;;;5119283;27;20105;-36
2021/04/03 05:03:13;;;;;;;1.75;1.30;;;22.30;37.20;;;;;;5132151;27;20095;-36
2021/04/03 05:05:40;;;;;;;1.77;1.15;;;22.30;37.20;;;;;;5135762;27;20051;-37
2021/04/03 05:08:06;;;;;;;1.50;1.05;;;22.30;37.20;;;;;;5127030;27;20416;-36
2021/04/03 05:10:34;;;;;;;1.50;1.00;;;22.30;37.20;;;;;;5120117;27;20043;-37
2021/04/03 05:13:02;;;;;;;1.58;1.15;;;22.30;37.20;;;;;;5124356;27;20055;-36
2021/04/03 05:15:30;;;;;;;1.50;1.00;;;22.30;37.20;;;;;;5134612;27;20108;-37
2021/04/03 05:17:57;;;;;;;1.23;0.88;;;22.30;37.20;;;;;;5134537;27;20493;-37
2021/04/03 05:20:23;;;;;;;1.42;0.90;;;22.30;37.10;;;;;;5120998;27;20486;-36
2021/04/03 05:22:50;;;;;;;1.60;1.30;;;22.30;37.20;;;;;;5132625;27;20043;-36
2021/04/03 05:25:17;;;;;;;1.60;1.17;;;22.30;37.10;;;;;;5133743;27;20111;-36
2021/04/03 05:27:44;;;;;;;1.50;1.13;;;22.30;37.20;;;;;;5117586;27;20093;-36
2021/04/03 05:30:12;;;;;;;1.02;0.85;;;22.30;37.10;;;;;;5118379;27;20074;-37
2021/04/03 05:32:38;;;;;;;1.50;1.13;;;22.30;37.10;;;;;;5119722;27;20510;-37
2021/04/03 05:35:06;;;;;;;2.60;0.90;;;22.30;37.10;;;;;;5126907;27;20043;-38
2021/04/03 05:37:33;;;;;;;1.13;1.00;;;22.30;37.10;;;;;;5134035;27;20043;-37
2021/04/03 05:39:59;;;;;;;1.60;1.10;;;22.30;37.10;;;;;;5134383;27;20051;-38
2021/04/03 05:42:33;;;;;;;1.40;1.30;;;22.30;37.20;;;;;;5135246;27;20122;-36
2021/04/03 05:45:03;;;;;;;1.50;1.10;;;22.30;37.20;;;;;;5135510;27;20067;-36
2021/04/03 05:47:33;;;;;;;2.20;0.88;;;22.30;37.20;;;;;;5133231;27;20051;-36
2021/04/03 05:50:01;;;;;;;1.10;0.80;;;22.30;37.10;;;;;;5116292;27;20047;-37
2021/04/03 05:52:28;;;;;;;1.23;1.00;;;22.30;37.10;;;;;;5115698;27;20044;-37
2021/04/03 05:54:55;;;;;;;1.38;1.00;;;22.30;37.10;;;;;;5134055;27;20070;-37
2021/04/03 05:57:24;;;;;;;1.88;1.00;;;22.30;37.20;;;;;;5132771;27;20130;-37
2021/04/03 05:59:51;;;;;;;1.50;1.08;;;22.30;37.20;;;;;;5133790;27;20429;-37
2021/04/03 06:02:18;;;;;;;1.10;1.00;;;22.30;37.10;;;;;;5131071;27;20133;-37
2021/04/03 06:04:45;;;;;;;2.17;1.00;;;22.30;37.10;;;;;;5132685;27;20043;-36
2021/04/03 06:07:11;;;;;;;1.85;1.13;;;22.30;37.00;;;;;;5133748;27;20523;-36
2021/04/03 06:09:39;;;;;;;2.47;1.00;;;22.30;37.00;;;;;;5130907;27;20043;-37
2021/04/03 06:12:06;;;;;;;1.67;1.25;;;22.30;37.00;;;;;;5133417;27;20483;-37
2021/04/03 06:14:37;;;;;;;1.40;0.95;;;22.30;37.00;;;;;;5132460;27;20039;-37
2021/04/03 06:17:04;;;;;;;1.63;0.90;;;22.30;37.00;;;;;;5116141;27;20097;-37
2021/04/03 06:19:32;;;;;;;1.00;0.90;;;22.30;37.00;;;;;;5107397;27;20100;-37
2021/04/03 06:22:03;;;;;;;1.42;1.13;;;22.30;37.00;;;;;;5131604;27;20514;-37
2021/04/03 06:24:38;;;;;;;1.10;0.82;;;22.30;37.10;;;;;;5133194;27;20075;-37
2021/04/03 06:27:13;;;;;;;1.73;1.17;;;22.30;37.10;;;;;;5131945;27;20121;-37
2021/04/03 06:29:46;;;;;;;1.42;1.02;;;22.30;37.10;;;;;;5126211;27;20040;-37
2021/04/03 06:32:24;;;;;;;1.20;0.95;;;22.30;37.00;;;;;;5129954;27;20039;-36
2021/04/03 06:34:53;;;;;;;1.67;1.05;;;22.30;37.10;;;;;;5130460;27;20078;-37
2021/04/03 06:37:28;;;;;;;1.60;0.95;;;22.30;37.10;;;;;;5131962;27;20050;-37
2021/04/03 06:40:00;;;;;;;2.33;1.20;;;22.30;37.00;;;;;;5133009;27;20086;-36
2021/04/03 06:42:43;;;;;;;1.42;1.05;;;22.20;37.00;;;;;;5131492;27;20047;-37
2021/04/03 06:45:31;;;;;;;1.25;1.02;;;22.20;36.90;;;;;;5133059;27;20092;-37
2021/04/03 06:48:07;;;;;;;1.58;1.00;;;22.30;37.00;;;;;;5131320;27;20051;-37
2021/04/03 06:50:40;;;;;;;1.25;1.00;;;22.20;36.90;;;;;;5132985;27;20035;-37
2021/04/03 06:53:11;;;;;;;2.67;1.30;;;22.20;37.00;;;;;;5131529;27;20122;-37
2021/04/03 06:55:39;;;;;;;0.95;0.80;;;22.30;37.00;;;;;;5131402;27;20075;-38
2021/04/03 06:58:07;;;;;;;1.58;1.27;;;22.30;37.00;;;;;;5131150;27;20047;-37
2021/04/03 07:00:35;;;;;;;2.15;1.00;;;22.20;36.90;;;;;;5132669;27;20040;-37
2021/04/03 07:03:15;;;;;;;1.60;0.90;;;22.30;37.00;;;;;;5133897;27;20043;-37
2021/04/03 07:05:42;;;;;;;1.40;0.90;;;22.30;37.00;;;;;;5117294;27;20082;-37
2021/04/03 07:08:09;;;;;;;1.63;1.20;;;22.30;37.00;;;;;;5113832;28;20096;-37
2021/04/03 07:10:39;;;;;;;1.35;1.08;;;22.30;37.00;;;;;;5131376;27;20410;-37
2021/04/03 07:13:09;;;;;;;1.45;1.20;;;22.30;37.00;;;;;;5132455;27;20082;-37
2021/04/03 07:15:36;;;;;;;1.58;0.93;;;22.30;37.00;;;;;;5131302;27;20047;-36
2021/04/03 07:18:07;;;;;;;2.70;1.17;;;22.30;37.00;;;;;;5131006;27;20100;-37
2021/04/03 07:20:36;;;;;;;1.42;0.90;;;22.30;37.00;;;;;;5133643;27;20134;-37
2021/04/03 07:23:06;;;;;;;2.13;1.02;;;22.30;37.00;;;;;;5113962;28;20451;-38
2021/04/03 07:25:35;;;;;;;1.65;1.08;;;22.30;36.90;;;;;;5125295;27;20075;-37
2021/04/03 07:28:04;;;;;;;2.03;1.00;;;22.30;36.90;;;;;;5120638;27;20054;-37
2021/04/03 07:30:40;;;;;;;1.17;0.90;;;22.30;37.00;;;;;;5110557;28;20043;-36
2021/04/03 07:33:16;;;;;;;1.88;1.23;;;22.30;37.00;;;;;;5119136;27;20399;-37
2021/04/03 07:35:55;;;;;;;1.75;0.95;;;22.30;36.90;;;;;;5131052;27;20039;-38
2021/04/03 07:38:30;;;;;;;1.30;1.08;;;22.30;36.90;;;;;;5133593;27;20040;-37
2021/04/03 07:41:16;;;;;;;2.42;1.23;;;22.30;36.80;;;;;;5131319;27;20486;-37
2021/04/03 07:43:44;;;;;;;2.08;1.10;;;22.30;36.90;;;;;;5130889;27;20038;-38
2021/04/03 07:46:41;;;;;;;1.90;1.17;;;22.30;36.90;;;;;;5132125;27;20442;-38
2021/04/03 07:49:09;;;;;;;1.17;0.90;;;22.30;36.90;;;;;;5112133;27;20073;-38
2021/04/03 07:51:35;;;;;;;1.92;1.20;;;22.30;36.90;;;;;;5133492;27;20061;-38
2021/04/03 07:54:04;;;;;;;2.58;1.27;;;22.30;36.90;;;;;;5114755;28;20108;-37
2021/04/03 07:56:52;;;;;;;1.42;1.00;;;22.30;36.80;;;;;;5114533;28;20122;-38
2021/04/03 07:59:43;;;;;;;1.25;0.90;;;22.30;36.80;;;;;;5130012;28;20103;-38
2021/04/03 08:02:22;;;;;;;2.45;1.20;;;22.30;36.80;;;;;;5110985;27;20133;-38
2021/04/03 08:04:49;;;;;;;1.52;1.00;;;22.30;36.80;;;;;;5113686;28;20047;-38
2021/04/03 08:07:19;;;;;;;1.20;1.10;;;22.30;36.90;;;;;;5133332;27;20043;-38
2021/04/03 08:09:47;;;;;;;2.05;1.20;;;22.30;36.80;;;;;;5109925;28;20097;-38
2021/04/03 08:12:14;;;;;;;2.20;1.20;;;22.30;36.80;;;;;;5119904;27;20052;-37
2021/04/03 08:14:43;;;;;;;2.45;1.10;;;22.30;36.80;;;;;;5120141;27;20411;-38
2021/04/03 08:17:18;;;;;;;2.88;1.02;;;22.30;36.80;;;;;;5120041;27;20465;-38
2021/04/03 08:19:45;;;;;;;2.08;1.00;;;22.30;36.80;;;;;;5120360;27;20100;-38
2021/04/03 08:22:12;;;;;;;3.92;1.00;;;22.30;36.80;;;;;;5127218;27;20104;-38
2021/04/03 08:24:38;;;;;;;2.20;1.27;;;22.30;36.80;;;;;;5116142;27;20083;-38
2021/04/03 08:27:07;;;;;;;2.08;1.10;;;22.30;36.80;;;;;;5135152;27;20558;-38
2021/04/03 08:29:38;;;;;;;1.95;1.20;;;22.30;36.80;;;;;;5133171;27;20040;-38
2021/04/03 08:32:07;;;;;;;1.55;0.90;;;22.30;36.80;;;;;;5135667;27;20487;-38
2021/04/03 08:34:41;;;;;;;1.65;1.00;;;22.30;36.80;;;;;;5135766;27;20039;-39
2021/04/03 08:37:08;;;;;;;2.33;1.30;;;22.30;36.70;;;;;;5135243;27;20092;-37
2021/04/03 08:39:35;;;;;;;1.77;1.10;;;22.30;36.80;;;;;;5134786;27;20055;-38
2021/04/03 08:42:01;;;;;;;1.75;1.10;;;22.30;36.70;;;;;;5133902;27;20086;-38
2021/04/03 08:44:30;;;;;;;1.60;1.02;;;22.30;36.70;;;;;;5134171;27;20108;-38
2021/04/03 08:47:03;;;;;;;1.10;1.00;;;22.30;36.70;;;;;;5132905;27;20047;-38
2021/04/03 08:49:37;;;;;;;2.10;1.33;;;22.30;36.70;;;;;;5135494;27;20457;-38
2021/04/03 08:52:06;;;;;;;2.08;1.08;;;22.30;36.70;;;;;;5135125;27;20055;-38
2021/04/03 08:54:41;;;;;;;1.58;1.10;;;22.30;36.60;;;;;;5133485;27;20092;-39
2021/04/03 08:57:29;;;;;;;2.38;1.20;;;22.30;36.60;;;;;;5116931;27;20043;-38
2021/04/03 08:59:58;;;;;;;3.97;1.20;;;22.30;36.60;;;;;;5134410;27;20079;-39
2021/04/03 09:02:25;;;;;;;2.20;1.23;;;22.30;36.60;;;;;;5135194;27;20146;-38
2021/04/03 09:04:52;;;;;;;2.88;1.20;;;22.30;36.60;;;;;;5115487;27;20396;-39
2021/04/03 09:07:32;;;;;;;1.48;1.20;;;22.30;36.60;;;;;;5121449;27;20045;-38
2021/04/03 09:10:11;;;;;;;2.00;1.13;;;22.30;36.60;;;;;;5118039;27;20487;-38
2021/04/03 09:12:38;;;;;;;3.15;1.30;;;22.20;36.60;;;;;;5117810;27;20050;-38
2021/04/03 09:15:07;;;;;;;1.75;1.00;;;22.30;36.70;;;;;;5115847;27;20100;-38
2021/04/03 09:17:35;;;;;;;1.88;1.27;;;22.20;36.60;;;;;;5134655;27;20047;-38
2021/04/03 09:20:14;;;;;;;2.80;1.20;;;22.20;36.60;;;;;;5118650;27;20051;-38
2021/04/03 09:22:43;;;;;;;2.13;1.20;;;22.20;36.60;;;;;;5132856;27;20053;-38
2021/04/03 09:25:14;;;;;;;2.53;1.17;;;22.20;36.50;;;;;;5133134;27;20081;-38
2021/04/03 09:27:41;;;;;;;3.80;1.10;;;22.20;36.50;;;;;;5134708;27;20093;-38
2021/04/03 09:30:11;;;;;;;3.83;1.10;;;22.20;36.50;;;;;;5132404;27;20043;-37
2021/04/03 09:32:45;;;;;;;1.52;1.00;;;22.20;36.60;;;;;;5133223;27;20086;-38
2021/04/03 09:35:21;;;;;;;2.00;1.10;;;22.30;36.60;;;;;;5134581;27;20062;-38
2021/04/03 09:37:57;;;;;;;1.55;0.98;;;22.30;37.20;;;;;;5133090;27;20050;-38
2021/04/03 09:40:42;;;;;;;1.13;1.00;;;22.20;36.50;;;;;;5133103;27;20078;-37
2021/04/03 09:43:10;;;;;;;1.70;1.10;;;22.20;36.50;;;;;;5134044;27;20047;-38
2021/04/03 09:45:42;;;;;;;1.83;1.05;;;22.20;36.40;;;;;;5133046;27;20567;-37
2021/04/03 09:48:11;;;;;;;2.80;1.10;;;22.20;36.40;;;;;;5134179;27;20040;-38
2021/04/03 09:50:40;;;;;;;4.72;0.90;;;22.20;36.40;;;;;;5132741;27;20055;-38
2021/04/03 09:53:09;;;;;;;2.65;1.20;;;22.20;36.40;;;;;;5133829;27;20039;-38
2021/04/03 09:55:36;;;;;;;2.35;1.13;;;22.20;36.40;;;;;;5134252;27;20044;-36
2021/04/03 09:58:04;;;;;;;1.58;0.88;;;22.20;36.30;;;;;;5133367;27;20047;-36
2021/04/03 10:00:31;;;;;;;1.85;0.80;;;22.20;36.30;;;;;;5133687;27;20422;-36
2021/04/03 10:02:59;;;;;;;1.70;0.88;;;22.20;36.40;;;;;;5132555;27;20123;-37
2021/04/03 10:05:26;;;;;;;3.38;1.15;;;22.20;36.30;;;;;;5130922;27;20128;-36
2021/04/03 10:07:53;;;;;;;1.50;1.02;;;22.20;36.30;;;;;;5132669;27;20108;-37
2021/04/03 10:10:20;;;;;;;2.88;1.00;;;22.20;36.20;;;;;;5132215;27;20043;-37
2021/04/03 10:12:46;;;;;;;1.23;0.80;;;22.20;36.30;;;;;;5132284;27;20039;-36
2021/04/03 10:15:13;;;;;;;1.83;0.77;;;22.20;36.30;;;;;;5133402;27;20081;-37
2021/04/03 10:17:40;;;;;;;3.88;1.05;;;22.20;36.30;;;;;;5133983;27;20051;-37
2021/04/03 10:20:07;;;;;;;2.88;1.05;;;22.20;36.30;;;;;;5098575;27;20549;-37
2021/04/03 10:22:35;;;;;;;1.42;0.90;;;22.20;36.30;;;;;;5115331;27;20574;-36
2021/04/03 10:25:02;;;;;;;1.63;0.73;;;22.20;36.30;;;;;;5116147;27;20059;-36
2021/04/03 10:27:28;;;;;;;1.67;1.00;;;22.20;36.30;;;;;;5132831;27;20092;-37
2021/04/03 10:29:55;;;;;;;1.40;1.10;;;22.20;36.30;;;;;;5117062;27;20043;-36
2021/04/03 10:32:21;;;;;;;0.85;0.80;;;22.20;36.30;;;;;;5118802;27;20048;-36
2021/04/03 10:34:48;;;;;;;1.55;0.90;;;22.20;36.30;;;;;;5115651;27;20046;-37
2021/04/03 10:37:15;;;;;;;1.45;1.00;;;22.20;36.30;;;;;;5117006;27;20059;-37
2021/04/03 10:39:41;;;;;;;1.85;0.85;;;22.20;36.30;;;;;;5114640;27;20047;-37
2021/04/03 10:42:08;;;;;;;2.05;1.00;;;22.30;36.40;;;;;;5131927;27;20039;-37
2021/04/03 10:44:35;;;;;;;2.08;1.27;;;22.20;36.30;;;;;;5117459;27;20098;-37
2021/04/03 10:47:02;;;;;;;2.22;1.05;;;22.20;36.30;;;;;;5134447;27;20051;-37
2021/04/03 10:49:29;;;;;;;1.50;0.95;;;22.20;36.30;;;;;;5115283;28;20456;-37
2021/04/03 10:51:55;;;;;;;1.60;0.80;;;22.20;36.30;;;;;;5117833;27;20055;-37
2021/04/03 10:54:23;;;;;;;1.75;0.73;;;22.30;37.00;;;;;;5116644;27;20043;-37
2021/04/03 10:56:50;;;;;;;1.73;0.70;;;22.30;36.40;;;;;;5118086;27;20050;-37
2021/04/03 10:59:17;;;;;;;1.55;0.70;;;22.30;36.40;;;;;;5126147;27;20140;-37
2021/04/03 11:01:43;;;;;;;1.35;0.80;;;22.30;36.30;;;;;;5132685;27;20498;-37
2021/04/03 11:04:10;;;;;;;2.13;0.80;;;22.20;36.30;;;;;;5114219;27;20112;-37
2021/04/03 11:06:37;;;;;;;1.85;1.00;;;22.30;36.30;;;;;;5129423;27;20039;-37
2021/04/03 11:09:04;;;;;;;1.33;0.70;;;22.30;36.30;;;;;;5114235;27;20069;-37
2021/04/03 11:11:31;;;;;;;4.38;0.95;;;22.30;36.30;;;;;;5134044;27;20065;-37
2021/04/03 11:13:58;;;;;;;1.90;0.82;;;22.30;36.30;;;;;;5132613;27;20058;-37
2021/04/03 11:16:26;;;;;;;0.82;0.80;;;22.30;36.30;;;;;;5131628;28;20047;-38
2021/04/03 11:18:53;;;;;;;2.72;1.10;;;22.30;36.30;;;;;;5133171;27;20511;-37
2021/04/03 11:21:21;;;;;;;1.40;0.80;;;22.30;36.30;;;;;;5131290;27;20051;-37
2021/04/03 11:23:51;;;;;;;2.17;1.05;;;22.30;36.30;;;;;;5132744;27;20411;-37
2021/04/03 11:26:21;;;;;;;1.33;0.95;;;22.30;36.30;;;;;;5130895;27;20055;-37
2021/04/03 11:28:48;;;;;;;1.52;0.77;;;22.30;36.30;;;;;;5114056;28;20039;-37
2021/04/03 11:31:15;;;;;;;2.20;0.80;;;22.30;36.30;;;;;;5124153;27;20043;-38
2021/04/03 11:33:42;;;;;;;2.47;0.90;;;22.30;36.30;;;;;;5131088;27;20047;-37
2021/04/03 11:36:08;;;;;;;2.58;1.27;;;22.30;36.30;;;;;;5131571;27;20096;-37
2021/04/03 11:38:35;;;;;;;1.77;0.90;;;22.30;36.30;;;;;;5132298;27;20049;-37
2021/04/03 11:41:02;;;;;;;1.80;1.08;;;22.30;36.30;;;;;;5130886;27;20055;-37
2021/04/03 11:43:28;;;;;;;1.50;0.75;;;22.30;36.30;;;;;;5130896;28;20047;-37
2021/04/03 11:45:55;;;;;;;2.25;1.00;;;22.30;36.20;;;;;;5132897;27;20126;-37
2021/04/03 11:48:22;;;;;;;1.45;1.00;;;22.30;36.20;;;;;;5135369;27;20055;-37
2021/04/03 11:50:49;;;;;;;2.28;0.85;;;22.30;36.20;;;;;;5135895;27;20118;-37
2021/04/03 11:53:16;;;;;;;1.88;0.88;;;22.30;36.30;;;;;;5135121;27;20043;-37
2021/04/03 11:55:42;;;;;;;2.33;0.88;;;22.30;36.30;;;;;;5117981;27;20543;-37
2021/04/03 11:58:09;;;;;;;2.35;1.27;;;22.30;36.30;;;;;;5134755;27;20051;-37
2021/04/03 12:00:36;;;;;;;1.27;0.90;;;22.30;36.30;;;;;;5135943;27;20471;-37
2021/04/03 12:03:03;;;;;;;3.42;0.90;;;22.30;36.30;;;;;;5133647;27;20216;-37
2021/04/03 12:05:30;;;;;;;1.20;0.82;;;22.30;36.30;;;;;;5118680;27;20083;-37
2021/04/03 12:07:57;;;;;;;2.38;1.02;;;22.30;36.30;;;;;;5118530;27;20494;-37
2021/04/03 12:10:23;;;;;;;1.00;0.80;;;22.30;36.30;;;;;;5134921;27;20556;-38
2021/04/03 12:12:50;;;;;;;1.90;1.05;;;22.30;36.30;;;;;;5136021;27;20051;-37
2021/04/03 12:15:17;;;;;;;1.88;0.80;;;22.30;36.30;;;;;;5134804;27;20054;-38
2021/04/03 12:17:45;;;;;;;1.30;0.90;;;22.30;36.20;;;;;;5134322;27;20043;-38
2021/04/03 12:20:16;;;;;;;1.75;1.10;;;22.30;36.10;;;;;;5117627;27;20059;-38
2021/04/03 12:22:44;;;;;;;1.73;0.80;;;22.30;36.10;;;;;;5134365;27;20122;-38
2021/04/03 12:25:12;;;;;;;1.23;0.80;;;22.30;36.30;;;;;;5135394;27;20047;-37
2021/04/03 12:27:39;;;;;;;0.95;0.70;;;22.30;36.20;;;;;;5135921;27;20039;-38
2021/04/03 12:30:07;;;;;;;3.40;0.95;;;22.30;36.20;;;;;;5129660;27;20046;-38
2021/04/03 12:32:34;;;;;;;1.25;0.98;;;22.30;36.10;;;;;;5117488;27;20065;-38
2021/04/03 12:35:01;;;;;;;2.20;0.95;;;22.30;36.20;;;;;;5135490;27;20064;-37
2021/04/03 12:37:28;;;;;;;3.15;0.90;;;22.30;36.10;;;;;;5133907;27;20051;-38
2021/04/03 12:39:55;;;;;;;1.70;0.90;;;22.30;36.10;;;;;;5135442;27;20432;-38
2021/04/03 12:42:22;;;;;;;1.30;0.82;;;22.30;36.10;;;;;;5135228;27;20522;-37
2021/04/03 12:44:48;;;;;;;2.75;0.98;;;22.30;36.10;;;;;;5134242;27;20413;-37
2021/04/03 12:47:15;;;;;;;1.70;0.88;;;22.30;36.10;;;;;;5115079;27;20482;-37
2021/04/03 12:49:42;;;;;;;1.83;0.85;;;22.30;36.10;;;;;;5134124;27;20123;-37
2021/04/03 12:52:08;;;;;;;1.48;0.70;;;22.30;36.10;;;;;;5112462;27;20047;-37
2021/04/03 12:54:35;;;;;;;1.52;0.90;;;22.30;36.10;;;;;;5119153;27;20040;-37
2021/04/03 12:57:02;;;;;;;0.95;0.68;;;22.30;36.10;;;;;;5118804;27;20058;-37
2021/04/03 12:59:29;;;;;;;2.90;0.95;;;22.30;36.00;;;;;;5134863;27;20039;-37